Time;durP1;ratioP1;P1;durP2;ratioP2;P2;SDS_P1;SDS_P2;PMS_P1;PMS_P2;Temp;Humidity;BMP_temperature;BMP_pressure;BME280_temperature;BME280_humidity;BME280_pressure;Samples;Min_cycle;Max_cycle;Signal;HPM_P1;HPM_P2
2022/03/21 00:00:27;;;;;;;32.30;14.80;;;;;;;9.52;56.19;102286.09;7383836;19;20015;-75
2022/03/21 00:02:55;;;;;;;30.88;14.27;;;;;;;9.49;55.98;102280.22;7380278;19;20438;-75
2022/03/21 00:05:23;;;;;;;29.60;13.80;;;;;;;9.45;56.04;102284.84;7379285;19;20015;-76
2022/03/21 00:07:50;;;;;;;32.40;14.98;;;;;;;9.45;56.84;102284.84;7381815;19;20095;-75
2022/03/21 00:10:17;;;;;;;33.45;15.32;;;;;;;9.41;58.30;102284.22;7380959;19;20020;-74
2022/03/21 00:12:45;;;;;;;31.63;14.20;;;;;;;9.41;57.04;102291.25;7383862;19;20090;-75
2022/03/21 00:15:11;;;;;;;31.15;14.25;;;;;;;9.37;56.69;102290.66;7381575;19;20010;-75
2022/03/21 00:17:40;;;;;;;34.17;14.65;;;;;;;9.33;56.48;102285.72;7381015;19;20451;-75
2022/03/21 00:20:09;;;;;;;34.80;14.60;;;;;;;9.36;56.25;102290.75;7384582;19;20348;-74
2022/03/21 00:22:37;;;;;;;30.33;15.95;;;;;;;9.41;58.05;102292.09;7375605;19;20026;-75
2022/03/21 00:25:05;;;;;;;29.70;14.15;;;;;;;9.43;55.54;102289.38;7380773;19;20353;-74
2022/03/21 00:27:34;;;;;;;29.15;14.07;;;;;;;9.44;54.81;102281.41;7380974;19;20485;-77
2022/03/21 00:30:02;;;;;;;32.63;14.07;;;;;;;9.47;54.93;102295.25;7381487;19;20015;-74
2022/03/21 00:32:29;;;;;;;33.13;16.90;;;;;;;9.47;56.41;102293.47;7380357;19;20533;-75
2022/03/21 00:34:56;;;;;;;35.15;16.63;;;;;;;9.48;58.17;102297.78;7384850;19;20081;-75
2022/03/21 00:37:23;;;;;;;31.88;14.68;;;;;;;9.45;56.56;102300.59;7379523;19;20031;-74
2022/03/21 00:39:51;;;;;;;33.88;15.40;;;;;;;9.39;56.06;102295.81;7382858;19;20014;-75
2022/03/21 00:42:18;;;;;;;34.33;14.85;;;;;;;9.34;55.88;102296.13;7383242;19;20022;-75
2022/03/21 00:44:45;;;;;;;34.33;16.42;;;;;;;9.36;56.92;102293.38;7382797;19;20090;-76
2022/03/21 00:47:14;;;;;;;28.92;14.75;;;;;;;9.41;58.92;102292.09;7381631;19;20027;-74
2022/03/21 00:49:41;;;;;;;31.65;14.02;;;;;;;9.41;56.64;102294.72;7380299;19;20017;-74
2022/03/21 00:52:08;;;;;;;35.83;16.52;;;;;;;9.42;58.59;102282.44;7381138;19;20591;-75
2022/03/21 00:54:35;;;;;;;31.40;13.73;;;;;;;9.44;58.35;102291.06;7376996;19;20014;-73
2022/03/21 00:57:03;;;;;;;31.80;15.40;;;;;;;9.45;58.14;102290.09;7379996;19;20493;-75
2022/03/21 00:59:30;;;;;;;34.28;15.40;;;;;;;9.45;58.27;102296.19;7383640;19;20411;-77
2022/03/21 01:01:57;;;;;;;32.22;14.68;;;;;;;9.43;55.31;102294.63;7379330;19;20019;-75
2022/03/21 01:04:24;;;;;;;38.00;17.13;;;;;;;9.44;59.30;102296.31;7380588;19;20013;-74
2022/03/21 01:06:51;;;;;;;30.08;13.80;;;;;;;9.42;56.74;102292.94;7376683;19;20077;-75
2022/03/21 01:09:22;;;;;;;30.73;14.50;;;;;;;9.38;55.37;102291.50;7378798;19;20010;-75
2022/03/21 01:11:53;;;;;;;31.27;15.10;;;;;;;9.30;55.38;102296.44;7376972;19;20035;-75
2022/03/21 01:14:20;;;;;;;33.92;14.75;;;;;;;9.28;55.41;102288.69;7380432;19;20472;-74
2022/03/21 01:16:47;;;;;;;33.35;16.88;;;;;;;9.31;56.75;102290.25;7380705;19;20440;-75
2022/03/21 01:19:13;;;;;;;33.25;14.77;;;;;;;9.31;55.02;102298.97;7377970;19;20087;-74
2022/03/21 01:21:42;;;;;;;32.17;15.43;;;;;;;9.32;56.34;102292.75;7377487;19;20070;-74
2022/03/21 01:24:09;;;;;;;31.67;14.65;;;;;;;9.31;56.20;102296.34;7380465;19;20448;-75
2022/03/21 01:26:36;;;;;;;33.05;15.55;;;;;;;9.30;56.55;102292.03;7378430;19;20347;-74
2022/03/21 01:29:02;;;;;;;38.03;16.00;;;;;;;9.32;60.05;102289.31;7379118;19;20381;-75
2022/03/21 01:31:29;;;;;;;33.13;15.35;;;;;;;9.28;56.88;102304.44;7377419;19;20112;-74
2022/03/21 01:33:56;;;;;;;39.05;16.73;;;;;;;9.22;57.86;102304.03;7382362;19;20010;-75
2022/03/21 01:36:23;;;;;;;37.60;16.00;;;;;;;9.17;57.38;102298.25;7382647;19;20034;-75
2022/03/21 01:38:50;;;;;;;31.23;15.27;;;;;;;9.11;57.50;102296.88;7385620;19;20027;-74
2022/03/21 01:41:17;;;;;;;33.92;16.23;;;;;;;9.08;58.23;102293.66;7387340;19;20602;-75
2022/03/21 01:44:04;;;;;;;32.92;15.65;;;;;;;9.01;58.06;102286.19;7384349;19;20485;-76
2022/03/21 01:46:32;;;;;;;36.53;16.52;;;;;;;9.00;58.43;102291.53;7383408;19;20033;-75
2022/03/21 01:49:00;;;;;;;34.78;15.52;;;;;;;8.96;57.87;102288.31;7386015;19;20066;-74
2022/03/21 01:51:27;;;;;;;38.97;16.88;;;;;;;8.97;57.79;102291.75;7385959;19;20090;-75
2022/03/21 01:56:44;;;;;;;37.40;16.23;;;;;;;8.95;57.84;102293.66;7382830;19;20018;-74
2022/03/21 01:59:12;;;;;;;35.97;16.38;;;;;;;8.94;58.65;102297.22;7388786;19;20563;-75
2022/03/21 02:01:41;;;;;;;37.05;15.48;;;;;;;8.90;57.43;102293.97;7385196;19;20007;-74
2022/03/21 02:04:09;;;;;;;36.15;16.33;;;;;;;8.91;58.23;102294.81;7386075;19;20010;-74
2022/03/21 02:06:36;;;;;;;37.92;17.42;;;;;;;8.89;57.82;102294.06;7383514;19;20018;-75
2022/03/21 02:09:07;;;;;;;34.55;17.77;;;;;;;8.85;57.46;102292.59;7384674;19;20006;-76
2022/03/21 02:11:34;;;;;;;40.47;17.02;;;;;;;8.81;58.27;102288.50;7388653;19;20507;-75
2022/03/21 02:14:03;;;;;;;37.00;18.25;;;;;;;8.82;58.61;102292.81;7383027;19;20035;-75
2022/03/21 02:16:31;;;;;;;41.25;18.17;;;;;;;8.80;59.78;102286.81;7385010;19;20011;-75
2022/03/21 02:19:22;;;;;;;37.92;17.63;;;;;;;8.76;59.03;102288.81;7384244;19;20443;-76
2022/03/21 02:22:20;;;;;;;38.33;18.15;;;;;;;8.77;60.09;102290.50;7386322;19;20051;-75
2022/03/21 02:24:47;;;;;;;37.35;16.77;;;;;;;8.74;58.76;102290.72;7384530;19;20130;-75
2022/03/21 02:27:16;;;;;;;40.85;18.73;;;;;;;8.76;60.70;102282.75;7386138;19;20078;-74
2022/03/21 02:29:47;;;;;;;36.25;16.60;;;;;;;8.75;59.25;102289.78;7386737;19;20010;-74
2022/03/21 02:32:14;;;;;;;36.88;17.45;;;;;;;8.74;58.75;102288.09;7385167;19;20014;-74
2022/03/21 02:34:42;;;;;;;37.38;17.63;;;;;;;8.73;60.00;102280.34;7384079;19;20402;-76
2022/03/21 02:37:13;;;;;;;36.97;17.73;;;;;;;8.68;59.43;102278.03;7381003;19;20082;-75
2022/03/21 02:39:42;;;;;;;33.60;17.10;;;;;;;8.63;59.26;102280.13;7384188;19;20479;-75
2022/03/21 02:42:09;;;;;;;37.28;16.55;;;;;;;8.59;59.52;102270.75;7386253;19;20102;-75
2022/03/21 02:44:41;;;;;;;41.00;17.58;;;;;;;8.53;58.88;102277.25;7381077;19;20372;-75
2022/03/21 02:47:09;;;;;;;35.60;17.00;;;;;;;8.56;59.86;102277.06;7381431;19;20014;-75
2022/03/21 02:49:37;;;;;;;35.55;16.50;;;;;;;8.59;59.10;102273.38;7382998;19;20074;-74
2022/03/21 02:52:05;;;;;;;36.78;17.60;;;;;;;8.63;60.63;102271.41;7385157;19;20014;-77
2022/03/21 02:54:34;;;;;;;42.63;20.95;;;;;;;8.67;61.68;102263.22;7382471;19;20042;-74
2022/03/21 02:57:02;;;;;;;38.22;17.77;;;;;;;8.73;60.97;102267.22;7382493;19;20045;-74
2022/03/21 02:59:29;;;;;;;38.97;17.38;;;;;;;8.73;58.76;102261.97;7387467;19;20017;-74
2022/03/21 03:01:56;;;;;;;42.55;19.30;;;;;;;8.72;58.66;102260.28;7382821;19;20394;-76
2022/03/21 03:04:24;;;;;;;35.58;16.30;;;;;;;8.69;57.62;102261.31;7385364;19;20010;-75
2022/03/21 03:06:52;;;;;;;37.53;16.88;;;;;;;8.66;57.30;102247.59;7380051;19;20070;-75
2022/03/21 03:09:26;;;;;;;42.88;18.30;;;;;;;8.65;57.50;102265.09;7381601;19;20035;-74
2022/03/21 03:11:53;;;;;;;39.22;15.88;;;;;;;8.59;57.86;102261.09;7380617;19;20126;-75
2022/03/21 03:14:20;;;;;;;39.08;17.42;;;;;;;8.55;58.61;102257.03;7382721;19;20034;-75
2022/03/21 03:16:47;;;;;;;35.08;16.85;;;;;;;8.53;58.58;102263.34;7379059;19;20018;-75
2022/03/21 03:19:14;;;;;;;36.53;16.10;;;;;;;8.49;57.83;102264.47;7385818;19;21014;-74
2022/03/21 03:21:48;;;;;;;36.80;16.58;;;;;;;8.43;57.31;102257.84;7384304;19;20427;-74
2022/03/21 03:24:18;;;;;;;36.40;16.30;;;;;;;8.43;57.71;102255.22;7383476;19;20340;-74
2022/03/21 03:26:45;;;;;;;36.42;16.55;;;;;;;8.39;56.98;102248.50;7382052;19;20018;-74
2022/03/21 03:29:20;;;;;;;38.28;16.40;;;;;;;8.40;57.01;102255.44;7382995;19;20015;-75
2022/03/21 03:31:52;;;;;;;37.15;16.27;;;;;;;8.44;60.28;102258.69;7384330;19;20225;-75
2022/03/21 03:34:19;;;;;;;37.90;16.05;;;;;;;8.43;57.25;102263.09;7382473;19;20083;-75
2022/03/21 03:36:46;;;;;;;40.53;19.63;;;;;;;8.47;60.08;102261.13;7379040;19;20350;-75
2022/03/21 03:39:13;;;;;;;41.15;16.55;;;;;;;8.45;58.99;102270.84;7381016;19;20027;-75
2022/03/21 03:41:41;;;;;;;37.85;17.35;;;;;;;8.43;57.56;102267.53;7381208;19;20074;-74
2022/03/21 03:44:10;;;;;;;37.53;16.50;;;;;;;8.41;58.71;102269.41;7379860;19;20034;-75
2022/03/21 03:46:37;;;;;;;35.03;16.23;;;;;;;8.40;57.48;102265.94;7383541;19;20021;-75
2022/03/21 03:49:04;;;;;;;29.95;15.02;;;;;;;8.41;57.20;102266.78;7381826;19;20018;-75
2022/03/21 03:51:31;;;;;;;34.67;15.68;;;;;;;8.44;57.98;102270.03;7381679;19;20036;-75
2022/03/21 03:53:58;;;;;;;38.28;16.30;;;;;;;8.48;58.50;102274.09;7377945;19;20094;-75
2022/03/21 03:56:25;;;;;;;34.88;15.45;;;;;;;8.51;56.85;102278.31;7380211;19;20018;-75
2022/03/21 03:58:52;;;;;;;39.95;19.13;;;;;;;8.53;58.65;102274.63;7384386;19;20028;-74
2022/03/21 04:01:19;;;;;;;33.90;16.20;;;;;;;8.53;57.86;102277.25;7384669;19;20478;-75
2022/03/21 04:03:46;;;;;;;35.75;15.52;;;;;;;8.53;56.73;102284.31;7379164;19;20007;-74
2022/03/21 04:06:17;;;;;;;32.92;16.45;;;;;;;8.56;60.17;102286.72;7379441;19;20007;-74
2022/03/21 04:08:46;;;;;;;33.15;16.02;;;;;;;8.53;57.25;102279.06;7383041;19;20033;-74
2022/03/21 04:11:14;;;;;;;32.65;17.10;;;;;;;8.54;58.34;102285.97;7379234;19;20010;-75
2022/03/21 04:13:42;;;;;;;36.45;15.90;;;;;;;8.55;57.81;102285.03;7381925;19;20471;-75
2022/03/21 04:16:09;;;;;;;35.50;16.08;;;;;;;8.56;59.05;102287.56;7379659;19;20011;-75
2022/03/21 04:18:37;;;;;;;38.00;17.45;;;;;;;8.55;58.80;102287.66;7380033;19;20090;-74
2022/03/21 04:21:26;;;;;;;38.33;15.20;;;;;;;8.52;56.50;102291.34;7379955;19;20024;-74
2022/03/21 04:23:56;;;;;;;39.55;18.45;;;;;;;8.48;57.03;102281.16;7382292;19;20018;-75
2022/03/21 04:26:24;;;;;;;35.10;16.05;;;;;;;8.43;56.91;102289.31;7383456;19;20676;-75
2022/03/21 04:28:51;;;;;;;36.58;17.65;;;;;;;8.41;58.12;102290.38;7381920;19;20031;-74
2022/03/21 04:31:18;;;;;;;35.42;15.55;;;;;;;8.32;57.88;102291.00;7385264;19;20011;-74
2022/03/21 04:33:45;;;;;;;32.20;16.05;;;;;;;8.26;57.66;102288.75;7378538;19;20018;-75
2022/03/21 04:36:13;;;;;;;32.47;15.90;;;;;;;8.18;57.48;102287.44;7377883;19;20014;-75
2022/03/21 04:38:40;;;;;;;38.15;15.85;;;;;;;8.18;58.42;102291.03;7377589;19;20015;-76
2022/03/21 04:41:07;;;;;;;37.70;16.40;;;;;;;8.13;58.11;102286.06;7383851;19;20078;-75
2022/03/21 04:43:34;;;;;;;39.30;17.38;;;;;;;8.13;59.12;102301.78;7382440;19;20490;-75
2022/03/21 04:46:02;;;;;;;35.38;15.77;;;;;;;8.11;59.34;102294.06;7380375;19;20014;-75
2022/03/21 04:48:29;;;;;;;35.72;16.23;;;;;;;8.12;60.33;102297.53;7379518;19;20556;-75
2022/03/21 04:50:56;;;;;;;37.70;15.85;;;;;;;8.15;60.39;102308.63;7380080;19;20014;-75
2022/03/21 04:53:23;;;;;;;36.53;16.13;;;;;;;8.14;60.12;102295.63;7376862;19;20038;-75
2022/03/21 04:55:51;;;;;;;38.80;17.48;;;;;;;8.15;61.47;102297.31;7379946;19;20390;-75
2022/03/21 04:58:19;;;;;;;36.72;18.48;;;;;;;8.16;63.39;102306.84;7380453;19;20011;-75
2022/03/21 05:00:45;;;;;;;39.08;17.63;;;;;;;8.18;62.60;102303.19;7381670;19;20066;-75
2022/03/21 05:03:13;;;;;;;39.42;18.48;;;;;;;8.23;63.53;102307.31;7379339;19;20018;-75
2022/03/21 05:05:43;;;;;;;38.90;18.15;;;;;;;8.25;62.98;102306.25;7379253;19;20448;-75
2022/03/21 05:08:10;;;;;;;35.30;17.30;;;;;;;8.25;62.97;102311.50;7382939;19;20019;-75
2022/03/21 05:10:37;;;;;;;35.88;18.02;;;;;;;8.28;63.55;102310.47;7394685;19;20082;-76
2022/03/21 05:13:06;;;;;;;38.95;17.15;;;;;;;8.26;63.45;102317.56;7396822;19;20022;-76
2022/03/21 05:15:34;;;;;;;38.40;17.70;;;;;;;8.26;64.73;102320.19;7394943;19;20078;-76
2022/03/21 05:18:02;;;;;;;35.60;17.27;;;;;;;8.21;63.70;102323.13;7390160;19;20014;-74
2022/03/21 05:20:29;;;;;;;37.38;17.73;;;;;;;8.14;64.32;102327.91;7393451;19;20113;-75
2022/03/21 05:31:15;;;;;;;41.70;19.05;;;;;;;7.97;65.27;102328.19;7393211;19;20027;-75
2022/03/21 05:36:27;;;;;;;44.75;18.92;;;;;;;7.96;65.93;102321.25;7394620;19;20068;-75
2022/03/21 05:38:57;;;;;;;41.90;18.65;;;;;;;7.94;66.10;102325.75;7391106;19;20014;-75
2022/03/21 05:41:25;;;;;;;44.47;18.30;;;;;;;7.98;65.92;102323.75;7392588;19;20010;-75
2022/03/21 05:43:52;;;;;;;43.90;20.08;;;;;;;7.98;67.11;102321.97;7393395;19;20631;-75
2022/03/21 05:46:20;;;;;;;46.60;20.83;;;;;;;8.00;66.93;102322.75;7394277;19;20427;-74
2022/03/21 05:48:51;;;;;;;41.08;19.98;;;;;;;7.99;66.62;102326.28;7392390;19;20006;-75
2022/03/21 05:51:22;;;;;;;43.58;19.92;;;;;;;7.99;67.36;102330.69;7392275;19;20399;-76
2022/03/21 05:53:51;;;;;;;43.10;21.13;;;;;;;8.01;66.97;102334.06;7390357;19;20014;-76
2022/03/21 05:56:19;;;;;;;49.47;22.02;;;;;;;8.03;67.75;102340.03;7391434;19;20094;-75
2022/03/21 05:58:46;;;;;;;46.20;21.17;;;;;;;8.06;67.29;102334.59;7395326;19;20010;-76
2022/03/21 06:01:18;;;;;;;49.00;22.50;;;;;;;8.06;67.55;102335.44;7390298;19;20025;-75
2022/03/21 06:03:47;;;;;;;;;;;;;;;8.03;67.95;102343.50;7393805;19;20011;-74
2022/03/21 06:06:15;;;;;;;46.72;21.65;;;;;;;7.99;68.26;102347.25;7392361;19;20391;-75
2022/03/21 06:08:43;;;;;;;48.17;22.35;;;;;;;7.99;68.59;102341.16;7391774;19;20122;-75
2022/03/21 06:11:12;;;;;;;49.35;22.27;;;;;;;8.00;68.08;102345.47;7396386;19;20032;-74
2022/03/21 06:13:42;;;;;;;48.58;22.52;;;;;;;8.08;67.99;102335.34;7390770;19;20011;-75
2022/03/21 06:16:10;;;;;;;49.08;22.00;;;;;;;8.08;67.61;102341.41;7392212;19;20107;-75
2022/03/21 06:18:38;;;;;;;53.92;24.45;;;;;;;8.15;69.34;102347.97;7394413;19;20010;-75
2022/03/21 06:21:07;;;;;;;56.00;24.85;;;;;;;8.14;67.79;102345.44;7385486;19;20022;-75
2022/03/21 06:23:34;;;;;;;58.00;26.48;;;;;;;8.18;69.22;102360.84;7384952;19;20114;-75
2022/03/21 06:26:02;;;;;;;57.97;24.38;;;;;;;8.15;68.37;102358.44;7384650;19;20363;-75
2022/03/21 06:28:30;;;;;;;56.45;24.98;;;;;;;8.10;68.25;102349.19;7388580;19;20027;-74
2022/03/21 06:30:58;;;;;;;53.03;25.23;;;;;;;8.15;68.91;102357.59;7388513;19;20014;-75
2022/03/21 06:33:27;;;;;;;52.10;23.35;;;;;;;8.15;67.87;102357.59;7385307;19;20029;-74
2022/03/21 06:35:55;;;;;;;56.35;24.83;;;;;;;8.21;69.16;102357.22;7386303;19;20029;-75
2022/03/21 06:38:23;;;;;;;61.55;25.90;;;;;;;8.22;68.32;102353.66;7381688;19;20014;-75
2022/03/21 06:40:50;;;;;;;48.97;23.15;;;;;;;8.25;68.17;102358.69;7382108;19;20014;-75
2022/03/21 06:43:20;;;;;;;59.15;26.10;;;;;;;8.24;67.67;102356.16;7384147;19;20412;-75
2022/03/21 06:45:51;;;;;;;59.60;26.50;;;;;;;8.28;67.44;102365.53;7383380;19;20466;-74
2022/03/21 06:48:20;;;;;;;59.65;25.95;;;;;;;8.32;68.17;102364.41;7381665;19;20049;-74
2022/03/21 06:50:47;;;;;;;59.20;24.52;;;;;;;8.34;67.33;102363.34;7382175;19;20496;-76
2022/03/21 06:53:16;;;;;;;55.20;26.35;;;;;;;8.35;67.66;102365.03;7383802;19;20552;-73
2022/03/21 06:55:44;;;;;;;60.65;26.15;;;;;;;8.34;67.13;102365.13;7383189;19;20019;-75
2022/03/21 06:58:13;;;;;;;58.50;26.23;;;;;;;8.34;67.87;102370.38;7384006;19;20018;-75
2022/03/21 07:00:44;;;;;;;55.67;26.73;;;;;;;8.38;67.68;102372.69;7386564;19;20014;-76
2022/03/21 07:03:15;;;;;;;55.78;26.73;;;;;;;8.39;67.74;102370.91;7383486;19;20010;-75
2022/03/21 07:05:44;;;;;;;60.00;28.02;;;;;;;8.42;68.30;102381.22;7383468;19;20017;-75
2022/03/21 07:08:12;;;;;;;56.88;25.95;;;;;;;8.48;67.43;102386.06;7382430;19;20011;-75
2022/03/21 07:10:40;;;;;;;61.75;27.15;;;;;;;8.57;69.05;102386.31;7386121;19;20024;-74
2022/03/21 07:13:08;;;;;;;60.50;27.17;;;;;;;8.64;67.75;102393.75;7383304;19;20018;-75
2022/03/21 07:15:37;;;;;;;62.92;27.73;;;;;;;8.75;69.73;102396.50;7382663;19;20449;-74
2022/03/21 07:18:05;;;;;;;59.15;27.23;;;;;;;8.76;68.02;102390.31;7380924;19;20296;-75
2022/03/21 07:20:32;;;;;;;60.95;28.77;;;;;;;8.88;67.62;102387.75;7384089;19;20010;-74
2022/03/21 07:22:59;;;;;;;62.97;27.73;;;;;;;8.97;68.07;102391.50;7380462;19;20397;-74
2022/03/21 07:25:26;;;;;;;63.28;27.45;;;;;;;9.01;66.96;102385.09;7383895;19;20035;-75
2022/03/21 07:27:53;;;;;;;62.70;28.35;;;;;;;9.06;67.42;102395.28;7381187;19;20011;-75
2022/03/21 07:30:21;;;;;;;58.55;26.58;;;;;;;9.17;66.31;102387.53;7385815;19;20087;-74
2022/03/21 07:32:48;;;;;;;62.88;29.38;;;;;;;9.32;66.30;102400.44;7382633;19;20010;-75
2022/03/21 07:35:15;;;;;;;57.33;27.38;;;;;;;9.43;65.45;102390.06;7383046;19;20119;-76
2022/03/21 07:37:50;;;;;;;63.45;28.23;;;;;;;9.48;65.08;102399.38;7381270;19;20340;-76
2022/03/21 07:40:18;;;;;;;60.17;28.05;;;;;;;9.65;65.28;102388.56;7386147;19;20526;-78
2022/03/21 07:42:47;;;;;;;52.00;26.55;;;;;;;9.95;63.32;102385.53;7380806;19;20011;-75
2022/03/21 07:48:02;;;;;;;64.18;28.63;;;;;;;10.36;62.43;102398.34;7382334;19;20070;-76
2022/03/21 07:50:30;;;;;;;62.35;29.90;;;;;;;10.48;62.55;102390.38;7384319;19;20046;-75
2022/03/21 07:52:59;;;;;;;57.28;27.58;;;;;;;10.61;62.04;102387.69;7380752;19;20383;-75
2022/03/21 07:55:27;;;;;;;54.92;26.77;;;;;;;10.75;60.52;102394.53;7382167;19;20078;-75
2022/03/21 07:57:54;;;;;;;66.07;29.30;;;;;;;11.01;61.18;102402.16;7378175;19;20088;-75
2022/03/21 08:00:23;;;;;;;56.78;27.13;;;;;;;11.29;59.15;102394.75;7384242;19;20015;-75
2022/03/21 08:02:51;;;;;;;56.35;28.02;;;;;;;11.53;59.98;102398.13;7379703;19;20340;-75
2022/03/21 08:05:19;;;;;;;60.42;27.70;;;;;;;11.52;58.18;102402.56;7380656;19;20018;-76
2022/03/21 08:07:46;;;;;;;59.28;28.35;;;;;;;11.38;59.89;102397.50;7384875;19;20071;-77
2022/03/21 08:10:15;;;;;;;53.38;26.55;;;;;;;11.32;59.32;102400.66;7384072;19;20533;-77
2022/03/21 08:12:42;;;;;;;64.30;31.23;;;;;;;11.23;61.28;102398.69;7383184;19;20027;-77
2022/03/21 08:15:12;;;;;;;56.95;27.92;;;;;;;11.15;60.68;102393.19;7382390;19;20033;-76
2022/03/21 08:17:50;;;;;;;53.38;27.75;;;;;;;11.09;59.10;102397.13;7380510;19;20023;-78
2022/03/21 08:20:19;;;;;;;59.85;29.77;;;;;;;11.01;60.04;102396.91;7383075;19;20014;-77
2022/03/21 08:22:47;;;;;;;64.55;29.45;;;;;;;10.94;59.54;102395.66;7377862;19;20003;-76
2022/03/21 08:25:16;;;;;;;60.30;28.83;;;;;;;11.16;61.08;102400.16;7383774;19;20190;-77
2022/03/21 08:27:43;;;;;;;56.10;26.88;;;;;;;11.76;58.28;102406.91;7383141;19;20035;-76
2022/03/21 08:30:15;;;;;;;55.83;26.73;;;;;;;12.44;55.38;102404.00;7379215;19;20035;-76
2022/03/21 08:32:43;;;;;;;;;;;;;;;12.73;53.63;102406.88;7379796;19;20381;-76
2022/03/21 08:35:11;;;;;;;58.63;26.48;;;;;;;12.67;53.43;102402.94;7380757;19;19945;-76
2022/03/21 08:37:39;;;;;;;57.30;26.38;;;;;;;12.43;54.66;102405.78;7380845;19;20014;-76
2022/03/21 08:40:08;;;;;;;51.75;24.48;;;;;;;12.14;53.98;102407.31;7379956;19;20012;-76
2022/03/21 08:42:36;;;;;;;60.25;28.10;;;;;;;11.96;56.51;102407.00;7379682;19;20007;-76
2022/03/21 08:45:04;;;;;;;52.55;25.48;;;;;;;11.86;55.18;102415.75;7384485;19;20023;-74
2022/03/21 08:47:32;;;;;;;51.70;25.35;;;;;;;11.85;56.00;102412.28;7379014;19;20078;-75
2022/03/21 08:49:59;;;;;;;54.78;26.67;;;;;;;11.82;56.63;102412.53;7380909;19;20030;-77
2022/03/21 08:52:28;;;;;;;50.33;23.50;;;;;;;11.80;54.53;102413.59;7382828;19;20101;-75
2022/03/21 08:54:55;;;;;;;48.53;25.08;;;;;;;11.79;56.82;102406.66;7379087;19;20010;-76
2022/03/21 08:57:22;;;;;;;52.75;25.55;;;;;;;11.80;57.79;102406.53;7377513;19;20014;-75
2022/03/21 08:59:52;;;;;;;51.72;24.95;;;;;;;11.79;57.69;102404.00;7381930;19;20015;-76
2022/03/21 09:02:20;;;;;;;50.75;24.02;;;;;;;11.83;56.75;102410.75;7380656;19;20006;-76
2022/03/21 09:04:47;;;;;;;49.22;24.05;;;;;;;11.83;55.21;102408.09;7380215;19;20023;-77
2022/03/21 09:07:14;;;;;;;48.35;23.40;;;;;;;11.85;55.82;102407.00;7381067;19;20031;-76
2022/03/21 09:09:41;;;;;;;45.70;23.10;;;;;;;11.81;55.61;102400.31;7380051;19;20033;-77
2022/03/21 09:12:09;;;;;;;52.45;24.50;;;;;;;11.85;55.78;102404.38;7382064;19;20087;-75
2022/03/21 09:14:37;;;;;;;47.63;23.73;;;;;;;11.88;55.84;102405.94;7378009;19;20014;-75
2022/03/21 09:17:10;;;;;;;44.92;22.70;;;;;;;11.92;56.28;102410.00;7380563;19;20578;-76
2022/03/21 09:19:37;;;;;;;44.03;22.13;;;;;;;11.96;55.09;102409.63;7376828;19;20356;-77
2022/03/21 09:22:04;;;;;;;46.67;23.67;;;;;;;12.04;55.74;102411.66;7379551;19;20246;-75
2022/03/21 09:24:32;;;;;;;46.72;23.85;;;;;;;12.04;55.23;102409.00;7377132;19;20017;-76
2022/03/21 09:27:03;;;;;;;47.35;22.48;;;;;;;12.05;54.61;102408.06;7379656;19;20011;-76
2022/03/21 09:29:35;;;;;;;44.50;20.67;;;;;;;12.08;54.92;102406.97;7381512;19;20014;-76
2022/03/21 09:32:02;;;;;;;48.15;24.95;;;;;;;12.07;55.70;102406.13;7380630;19;20015;-77
2022/03/21 09:34:32;;;;;;;52.47;24.25;;;;;;;12.09;55.76;102416.56;7379696;19;20067;-77
2022/03/21 09:37:01;;;;;;;39.55;21.50;;;;;;;12.15;56.44;102409.00;7377470;19;20049;-75
2022/03/21 09:39:35;;;;;;;48.50;23.95;;;;;;;12.17;55.54;102404.44;7379180;19;20372;-76
2022/03/21 09:42:03;;;;;;;46.85;23.38;;;;;;;12.22;55.92;102404.06;7379912;19;20010;-77
2022/03/21 09:44:30;;;;;;;50.92;22.20;;;;;;;12.25;55.58;102403.78;7378008;19;20109;-76
2022/03/21 09:48:08;;;;;;;44.88;22.23;;;;;;;12.23;54.39;102406.59;7380429;19;20103;-76
2022/03/21 09:49:52;;;;;;;49.05;22.60;;;;;;;12.26;55.21;102401.03;7379248;19;20011;-75
2022/03/21 09:52:22;;;;;;;47.20;21.77;;;;;;;12.39;55.85;102396.44;7377203;19;20126;-76
2022/03/21 09:54:51;;;;;;;44.00;22.27;;;;;;;12.42;55.16;102408.56;7376641;19;20018;-75
2022/03/21 09:57:19;;;;;;;41.17;21.77;;;;;;;12.44;55.20;102404.81;7384852;19;20011;-75
2022/03/21 09:59:46;;;;;;;49.53;23.50;;;;;;;12.47;54.98;102406.38;7388376;19;20093;-75
2022/03/21 10:02:18;;;;;;;44.60;22.70;;;;;;;12.47;55.31;102398.44;7384660;19;20029;-77
2022/03/21 10:04:46;;;;;;;44.15;22.55;;;;;;;12.50;55.03;102398.19;7385763;19;20015;-75
2022/03/21 10:07:15;;;;;;;51.70;23.13;;;;;;;12.56;55.40;102402.13;7383782;19;20447;-75
2022/03/21 10:09:43;;;;;;;47.70;23.00;;;;;;;12.63;55.31;102396.22;7383543;19;20026;-77
2022/03/21 10:12:11;;;;;;;45.10;22.08;;;;;;;12.71;55.32;102401.69;7384422;19;20022;-76
2022/03/21 10:14:38;;;;;;;52.90;23.00;;;;;;;12.74;54.66;102401.47;7386859;19;20408;-75
2022/03/21 10:17:10;;;;;;;45.53;22.45;;;;;;;12.77;54.55;102395.06;7386342;19;20446;-75
2022/03/21 10:19:53;;;;;;;46.60;21.83;;;;;;;12.85;53.15;102398.72;7387250;19;20118;-75
2022/03/21 10:22:36;;;;;;;48.28;23.60;;;;;;;12.89;54.75;102398.50;7384637;19;20483;-76
2022/03/21 10:25:15;;;;;;;51.90;23.90;;;;;;;12.93;54.17;102402.56;7385065;19;20022;-77
2022/03/21 10:27:44;;;;;;;48.83;24.52;;;;;;;12.96;55.48;102399.63;7386397;19;20355;-76
2022/03/21 10:30:15;;;;;;;46.22;21.75;;;;;;;13.00;53.00;102398.44;7389152;19;20029;-76
2022/03/21 10:32:47;;;;;;;48.22;22.48;;;;;;;12.98;53.42;102392.44;7384114;19;20792;-76
2022/03/21 10:35:14;;;;;;;47.92;22.40;;;;;;;13.03;53.63;102395.53;7385138;19;20181;-75
2022/03/21 10:38:02;;;;;;;46.22;21.08;;;;;;;13.08;52.67;102394.16;7381059;19;20082;-76
2022/03/21 10:40:32;;;;;;;48.42;21.70;;;;;;;13.12;53.16;102397.41;7381208;19;20011;-76
2022/03/21 10:43:09;;;;;;;44.53;21.25;;;;;;;13.16;53.53;102396.19;7383575;19;20131;-76
2022/03/21 10:45:41;;;;;;;45.80;21.20;;;;;;;13.20;53.60;102389.69;7385253;19;20275;-75
2022/03/21 10:48:14;;;;;;;46.03;21.65;;;;;;;13.28;54.28;102384.56;7382572;19;20366;-76
2022/03/21 10:50:43;;;;;;;44.70;21.00;;;;;;;13.34;53.20;102386.69;7387044;19;20078;-75
2022/03/21 10:53:12;;;;;;;47.08;21.30;;;;;;;13.40;52.37;102388.81;7381804;19;20070;-76
2022/03/21 10:55:41;;;;;;;40.65;20.13;;;;;;;13.43;52.93;102388.53;7386310;19;20255;-76
2022/03/21 10:58:08;;;;;;;48.15;22.77;;;;;;;13.48;52.53;102385.50;7383151;19;20473;-77
2022/03/21 11:00:35;;;;;;;49.22;21.05;;;;;;;13.52;52.27;102382.44;7385470;19;20018;-77
2022/03/21 11:03:06;;;;;;;42.13;19.73;;;;;;;13.58;52.22;102387.19;7382549;19;20030;-77
2022/03/21 11:05:41;;;;;;;44.67;19.55;;;;;;;13.63;52.99;102389.44;7383280;19;20027;-76
2022/03/21 11:08:10;;;;;;;42.45;19.67;;;;;;;13.70;51.76;102386.13;7382028;19;20074;-75
2022/03/21 11:10:38;;;;;;;42.03;19.17;;;;;;;13.77;51.94;102377.63;7383189;19;20019;-74
2022/03/21 11:13:07;;;;;;;49.38;19.60;;;;;;;13.83;51.84;102385.03;7380585;19;20033;-75
2022/03/21 11:15:36;;;;;;;42.03;18.55;;;;;;;13.83;51.69;102375.31;7383467;19;20016;-75
2022/03/21 11:18:05;;;;;;;41.40;18.58;;;;;;;13.86;50.84;102369.75;7381862;19;20015;-77
2022/03/21 11:20:32;;;;;;;39.50;18.52;;;;;;;13.91;51.47;102372.00;7383149;19;20086;-77
2022/03/21 11:23:01;;;;;;;37.13;16.98;;;;;;;13.99;51.13;102369.47;7381046;19;20011;-78
2022/03/21 11:25:42;;;;;;;36.28;17.60;;;;;;;14.01;50.29;102378.13;7360616;19;20471;-76
2022/03/21 11:28:40;;;;;;;34.95;16.80;;;;;;;14.08;50.40;102371.31;7375984;19;20078;-76
2022/03/21 11:31:41;;;;;;;37.00;16.42;;;;;;;14.18;49.10;102371.31;7382684;19;20085;-75
2022/03/21 11:34:36;;;;;;;30.95;15.25;;;;;;;14.26;49.12;102371.47;7381583;19;20084;-76
2022/03/21 11:37:27;;;;;;;36.83;15.63;;;;;;;14.27;48.48;102371.34;7382440;19;20011;-75
2022/03/21 11:40:28;;;;;;;31.33;13.40;;;;;;;14.38;48.44;102359.78;7377954;19;20010;-75